sensor_id;sensor_type;location;lat;lon;timestamp;P1;durP1;ratioP1;P2;durP2;ratioP2
56173;SDS011;42058;52.308;20.924;2023-04-15T01:06:03;8.50;;;6.30;;
56173;SDS011;42058;52.308;20.924;2023-04-15T01:08:32;10.00;;;6.40;;
56173;SDS011;42058;52.308;20.924;2023-04-15T01:11:00;10.00;;;6.90;;
56173;SDS011;42058;52.308;20.924;2023-04-15T01:13:30;11.10;;;7.30;;
56173;SDS011;42058;52.308;20.924;2023-04-15T01:16:01;11.30;;;7.50;;
56173;SDS011;42058;52.308;20.924;2023-04-15T01:18:31;9.10;;;6.90;;
56173;SDS011;42058;52.308;20.924;2023-04-15T01:21:00;8.70;;;7.00;;
56173;SDS011;42058;52.308;20.924;2023-04-15T01:23:35;9.10;;;6.70;;
56173;SDS011;42058;52.308;20.924;2023-04-15T01:26:05;10.40;;;7.30;;
56173;SDS011;42058;52.308;20.924;2023-04-15T01:28:36;9.50;;;6.80;;
56173;SDS011;42058;52.308;20.924;2023-04-15T01:31:08;8.70;;;7.00;;
56173;SDS011;42058;52.308;20.924;2023-04-15T01:33:37;9.00;;;6.70;;
56173;SDS011;42058;52.308;20.924;2023-04-15T01:36:06;8.80;;;6.90;;
56173;SDS011;42058;52.308;20.924;2023-04-15T01:38:36;9.20;;;6.60;;
56173;SDS011;42058;52.308;20.924;2023-04-15T01:41:05;8.60;;;6.90;;
56173;SDS011;42058;52.308;20.924;2023-04-15T01:43:34;11.20;;;7.70;;
56173;SDS011;42058;52.308;20.924;2023-04-15T01:46:05;12.40;;;8.00;;
56173;SDS011;42058;52.308;20.924;2023-04-15T01:48:33;10.50;;;7.90;;
56173;SDS011;42058;52.308;20.924;2023-04-15T01:51:03;9.70;;;7.20;;
56173;SDS011;42058;52.308;20.924;2023-04-15T01:53:31;10.70;;;7.20;;
56173;SDS011;42058;52.308;20.924;2023-04-15T01:55:59;9.40;;;7.20;;
56173;SDS011;42058;52.308;20.924;2023-04-15T01:58:26;16.70;;;8.50;;
56173;SDS011;42058;52.308;20.924;2023-04-15T02:00:54;10.70;;;7.40;;
56173;SDS011;42058;52.308;20.924;2023-04-15T02:03:23;11.70;;;7.90;;
56173;SDS011;42058;52.308;20.924;2023-04-15T02:05:52;11.80;;;8.40;;
56173;SDS011;42058;52.308;20.924;2023-04-15T02:08:20;12.40;;;8.10;;
56173;SDS011;42058;52.308;20.924;2023-04-15T02:10:49;10.90;;;8.10;;
56173;SDS011;42058;52.308;20.924;2023-04-15T02:13:17;12.60;;;8.20;;
56173;SDS011;42058;52.308;20.924;2023-04-15T02:15:46;12.70;;;8.00;;
56173;SDS011;42058;52.308;20.924;2023-04-15T02:18:15;12.60;;;8.30;;
56173;SDS011;42058;52.308;20.924;2023-04-15T02:20:43;11.30;;;8.60;;
56173;SDS011;42058;52.308;20.924;2023-04-15T02:23:11;11.50;;;8.00;;
56173;SDS011;42058;52.308;20.924;2023-04-15T02:25:39;11.80;;;7.80;;
56173;SDS011;42058;52.308;20.924;2023-04-15T02:28:07;12.50;;;9.40;;
56173;SDS011;42058;52.308;20.924;2023-04-15T02:30:35;13.90;;;8.50;;
56173;SDS011;42058;52.308;20.924;2023-04-15T02:33:03;13.60;;;8.90;;
56173;SDS011;42058;52.308;20.924;2023-04-15T02:35:31;12.90;;;9.20;;
56173;SDS011;42058;52.308;20.924;2023-04-15T02:37:58;12.40;;;8.60;;
56173;SDS011;42058;52.308;20.924;2023-04-15T02:40:27;10.50;;;8.30;;
56173;SDS011;42058;52.308;20.924;2023-04-15T02:42:55;10.60;;;8.50;;
56173;SDS011;42058;52.308;20.924;2023-04-15T02:45:23;12.90;;;9.10;;
56173;SDS011;42058;52.308;20.924;2023-04-15T02:47:55;11.70;;;9.10;;
56173;SDS011;42058;52.308;20.924;2023-04-15T02:50:23;13.00;;;9.20;;
56173;SDS011;42058;52.308;20.924;2023-04-15T02:52:52;12.90;;;8.80;;
56173;SDS011;42058;52.308;20.924;2023-04-15T02:55:19;11.50;;;8.50;;
56173;SDS011;42058;52.308;20.924;2023-04-15T02:57:47;12.10;;;8.00;;
56173;SDS011;42058;52.308;20.924;2023-04-15T03:00:15;11.60;;;8.70;;
56173;SDS011;42058;52.308;20.924;2023-04-15T03:02:44;12.50;;;9.10;;
56173;SDS011;42058;52.308;20.924;2023-04-15T03:05:13;12.00;;;9.30;;
56173;SDS011;42058;52.308;20.924;2023-04-15T03:07:49;10.60;;;8.70;;
56173;SDS011;42058;52.308;20.924;2023-04-15T03:10:18;13.50;;;8.10;;
56173;SDS011;42058;52.308;20.924;2023-04-15T03:12:46;12.30;;;8.70;;
56173;SDS011;42058;52.308;20.924;2023-04-15T03:15:19;13.80;;;9.50;;
56173;SDS011;42058;52.308;20.924;2023-04-15T03:17:50;12.00;;;8.30;;
56173;SDS011;42058;52.308;20.924;2023-04-15T03:20:17;16.50;;;9.40;;
56173;SDS011;42058;52.308;20.924;2023-04-15T03:22:47;14.00;;;8.90;;
56173;SDS011;42058;52.308;20.924;2023-04-15T03:25:14;11.20;;;8.40;;
56173;SDS011;42058;52.308;20.924;2023-04-15T03:27:42;12.60;;;9.10;;
56173;SDS011;42058;52.308;20.924;2023-04-15T03:30:10;14.20;;;9.20;;
56173;SDS011;42058;52.308;20.924;2023-04-15T03:32:40;13.10;;;9.20;;
56173;SDS011;42058;52.308;20.924;2023-04-15T03:35:08;12.40;;;8.60;;
56173;SDS011;42058;52.308;20.924;2023-04-15T03:37:36;12.20;;;8.60;;
56173;SDS011;42058;52.308;20.924;2023-04-15T03:40:04;13.40;;;8.40;;
56173;SDS011;42058;52.308;20.924;2023-04-15T03:42:32;13.90;;;8.70;;
56173;SDS011;42058;52.308;20.924;2023-04-15T03:44:59;12.60;;;8.20;;
56173;SDS011;42058;52.308;20.924;2023-04-15T03:47:27;13.10;;;9.00;;
56173;SDS011;42058;52.308;20.924;2023-04-15T03:49:55;15.10;;;8.60;;
56173;SDS011;42058;52.308;20.924;2023-04-15T03:52:23;14.80;;;9.50;;
56173;SDS011;42058;52.308;20.924;2023-04-15T03:54:51;15.50;;;8.60;;
56173;SDS011;42058;52.308;20.924;2023-04-15T03:57:19;12.30;;;8.70;;
56173;SDS011;42058;52.308;20.924;2023-04-15T03:59:47;12.40;;;9.00;;
56173;SDS011;42058;52.308;20.924;2023-04-15T04:02:14;14.30;;;9.30;;
56173;SDS011;42058;52.308;20.924;2023-04-15T04:04:42;11.10;;;8.10;;
56173;SDS011;42058;52.308;20.924;2023-04-15T04:07:14;17.50;;;9.90;;
56173;SDS011;42058;52.308;20.924;2023-04-15T04:09:43;13.00;;;8.60;;
56173;SDS011;42058;52.308;20.924;2023-04-15T04:12:13;13.00;;;8.10;;
56173;SDS011;42058;52.308;20.924;2023-04-15T04:14:41;14.50;;;9.00;;
56173;SDS011;42058;52.308;20.924;2023-04-15T04:17:09;10.90;;;8.40;;
56173;SDS011;42058;52.308;20.924;2023-04-15T04:19:37;13.20;;;8.90;;
56173;SDS011;42058;52.308;20.924;2023-04-15T04:22:04;12.80;;;8.90;;
56173;SDS011;42058;52.308;20.924;2023-04-15T04:24:32;11.90;;;7.90;;
56173;SDS011;42058;52.308;20.924;2023-04-15T04:27:00;11.50;;;8.20;;
56173;SDS011;42058;52.308;20.924;2023-04-15T04:29:28;15.90;;;10.60;;
56173;SDS011;42058;52.308;20.924;2023-04-15T04:31:56;12.90;;;9.40;;
